createdAt,value
2022-10-05T00:00:16.357Z,5.57
2022-10-05T00:02:45.094Z,5.53
2022-10-05T00:05:24.898Z,6.37
2022-10-05T00:07:55.574Z,6.40
2022-10-05T00:10:24.040Z,6.53
2022-10-05T00:12:52.166Z,5.63
2022-10-05T00:15:21.903Z,5.70
2022-10-05T00:17:50.370Z,5.97
2022-10-05T00:20:22.760Z,6.13
2022-10-05T00:22:56.895Z,6.60
2022-10-05T00:25:25.439Z,5.80
2022-10-05T00:27:56.887Z,5.97
2022-10-05T00:30:26.928Z,5.50
2022-10-05T00:32:59.282Z,6.57
2022-10-05T00:35:29.621Z,5.20
2022-10-05T00:37:59.060Z,5.27
2022-10-05T00:40:37.872Z,6.00
2022-10-05T00:43:33.380Z,5.83
2022-10-05T00:46:07.973Z,5.80
2022-10-05T00:48:43.054Z,5.90
2022-10-05T00:51:29.644Z,6.53
2022-10-05T00:54:18.525Z,5.87
2022-10-05T00:57:15.326Z,5.70
2022-10-05T00:59:56.805Z,5.93
2022-10-05T01:02:36.493Z,6.00
2022-10-05T01:05:13.573Z,6.13
2022-10-05T01:07:51.961Z,5.87
2022-10-05T01:10:33.969Z,6.40
2022-10-05T01:13:08.822Z,6.40
2022-10-05T01:15:44.271Z,6.23
2022-10-05T01:18:18.023Z,6.07
2022-10-05T01:20:57.844Z,5.70
2022-10-05T01:24:14.471Z,5.83
2022-10-05T01:27:01.689Z,6.13
2022-10-05T01:29:38.781Z,6.07
2022-10-05T01:32:13.961Z,5.70
2022-10-05T01:34:49.117Z,5.23
2022-10-05T01:37:25.653Z,6.23
2022-10-05T01:40:07.255Z,6.40
2022-10-05T01:42:44.904Z,6.40
2022-10-05T01:45:23.521Z,5.67
2022-10-05T01:47:58.805Z,6.57
2022-10-05T01:50:36.064Z,6.20
2022-10-05T01:53:14.061Z,6.73
2022-10-05T01:55:50.570Z,6.40
2022-10-05T01:58:27.848Z,5.80
2022-10-05T02:01:04.597Z,5.57
2022-10-05T02:03:41.337Z,6.20
2022-10-05T02:06:14.501Z,6.37
2022-10-05T02:08:48.800Z,6.47
2022-10-05T02:11:16.784Z,5.83
2022-10-05T02:13:50.845Z,5.77
2022-10-05T02:16:27.484Z,6.03
2022-10-05T02:19:01.898Z,6.60
2022-10-05T02:21:32.125Z,6.03
2022-10-05T02:24:08.558Z,7.07
2022-10-05T02:26:39.455Z,6.23
2022-10-05T02:29:11.151Z,6.53
2022-10-05T02:31:48.630Z,6.47
2022-10-05T02:34:25.113Z,5.50
2022-10-05T02:37:08.023Z,5.90
2022-10-05T02:39:44.070Z,5.47
2022-10-05T02:42:21.923Z,6.30
2022-10-05T02:44:59.512Z,6.23
2022-10-05T02:47:38.728Z,6.70
2022-10-05T02:50:13.434Z,6.67
2022-10-05T02:52:51.748Z,6.63
2022-10-05T02:55:23.886Z,6.13
2022-10-05T02:57:59.293Z,6.10
2022-10-05T03:00:32.098Z,6.27
2022-10-05T03:03:07.760Z,7.87
2022-10-05T03:05:40.040Z,5.93
2022-10-05T03:08:14.355Z,6.23
2022-10-05T03:10:51.266Z,6.17
2022-10-05T03:13:27.897Z,6.83
2022-10-05T03:16:12.907Z,6.00
2022-10-05T03:18:59.884Z,7.73
2022-10-05T03:21:42.613Z,7.30
2022-10-05T03:24:26.297Z,8.90
2022-10-05T03:27:04.695Z,7.77
2022-10-05T03:29:39.887Z,6.63
2022-10-05T03:32:15.285Z,6.30
2022-10-05T03:34:49.997Z,6.17
2022-10-05T03:37:25.098Z,7.17
2022-10-05T03:40:01.398Z,6.13
2022-10-05T03:42:39.082Z,6.07
2022-10-05T03:45:19.335Z,6.23
2022-10-05T03:48:01.452Z,6.40
2022-10-05T03:50:41.158Z,5.90
2022-10-05T03:53:16.481Z,6.33
2022-10-05T03:55:50.886Z,6.23
2022-10-05T03:58:23.473Z,6.43
2022-10-05T04:00:57.352Z,6.27
2022-10-05T04:03:31.754Z,5.70
2022-10-05T04:06:08.622Z,6.83
2022-10-05T04:08:47.487Z,5.83
2022-10-05T04:11:19.624Z,5.27
2022-10-05T04:13:53.168Z,6.27
2022-10-05T04:16:28.028Z,6.53
2022-10-05T04:19:03.160Z,6.90
2022-10-05T04:21:37.351Z,6.80
2022-10-05T04:24:10.947Z,6.00
2022-10-05T04:26:43.376Z,6.33
2022-10-05T04:29:19.077Z,5.93
2022-10-05T04:32:02.669Z,6.50
2022-10-05T04:34:50.287Z,6.40
2022-10-05T04:37:26.374Z,7.03
2022-10-05T04:40:07.695Z,6.57
2022-10-05T04:42:41.329Z,6.47
2022-10-05T04:45:19.982Z,6.67
2022-10-05T04:48:10.745Z,5.70
2022-10-05T04:50:51.720Z,6.50
2022-10-05T04:53:31.947Z,6.60
2022-10-05T04:56:09.361Z,6.87
2022-10-05T04:59:03.867Z,5.90
2022-10-05T05:01:48.250Z,6.40
2022-10-05T05:04:54.533Z,6.73
2022-10-05T05:07:35.450Z,7.17
2022-10-05T05:10:42.027Z,6.33
2022-10-05T05:13:25.846Z,6.53
2022-10-05T05:16:00.007Z,6.35
2022-10-05T05:19:04.177Z,8.10
2022-10-05T05:21:41.838Z,6.90
2022-10-05T05:24:22.506Z,6.10
2022-10-05T05:27:04.975Z,6.47
2022-10-05T05:29:44.348Z,7.03
2022-10-05T05:32:23.211Z,7.03
2022-10-05T05:35:18.330Z,6.83
2022-10-05T05:37:54.804Z,7.00
2022-10-05T05:40:28.874Z,5.80
2022-10-05T05:43:01.899Z,5.80
2022-10-05T05:45:41.672Z,6.13
2022-10-05T05:48:18.164Z,5.83
2022-10-05T05:50:55.441Z,6.50
2022-10-05T05:53:31.126Z,5.67
2022-10-05T05:56:06.821Z,6.17
2022-10-05T05:58:44.802Z,5.87
2022-10-05T06:01:32.603Z,5.60
2022-10-05T06:04:05.167Z,6.30
2022-10-05T06:06:37.427Z,6.27
2022-10-05T06:09:14.829Z,6.23
2022-10-05T06:11:48.440Z,7.10
2022-10-05T06:14:25.670Z,7.20
2022-10-05T06:16:59.205Z,6.13
2022-10-05T06:19:29.445Z,6.03
2022-10-05T06:22:06.253Z,5.93
2022-10-05T06:24:40.103Z,6.20
2022-10-05T06:27:26.496Z,6.90
2022-10-05T06:30:15.213Z,7.30
2022-10-05T06:33:02.568Z,7.30
2022-10-05T06:35:46.628Z,6.50
2022-10-05T06:38:34.038Z,7.20
2022-10-05T06:41:13.206Z,6.53
2022-10-05T06:44:00.707Z,6.10
2022-10-05T06:46:35.833Z,6.50
2022-10-05T06:49:17.499Z,6.13
2022-10-05T06:51:52.934Z,6.23
2022-10-05T06:54:41.096Z,6.07
2022-10-05T06:57:20.947Z,6.83
2022-10-05T06:59:57.530Z,5.97
2022-10-05T07:02:36.438Z,6.80
2022-10-05T07:05:40.759Z,6.97
2022-10-05T07:08:13.944Z,6.07
2022-10-05T07:10:59.667Z,6.40
2022-10-05T07:13:48.323Z,6.03
2022-10-05T07:16:28.833Z,6.77
2022-10-05T07:19:11.758Z,7.37
2022-10-05T07:21:47.398Z,7.07
2022-10-05T07:24:29.309Z,6.03
2022-10-05T07:27:08.174Z,6.27
2022-10-05T07:29:41.561Z,6.70
2022-10-05T07:32:22.349Z,5.70
2022-10-05T07:35:03.802Z,6.50
2022-10-05T07:37:55.879Z,6.67
2022-10-05T07:40:30.007Z,8.53
2022-10-05T07:43:07.610Z,8.30
2022-10-05T07:45:43.519Z,7.73
2022-10-05T07:48:19.668Z,7.53
2022-10-05T07:51:08.324Z,7.67
2022-10-05T07:53:40.594Z,6.73
2022-10-05T07:56:15.953Z,7.93
2022-10-05T07:58:48.542Z,7.00
2022-10-05T08:01:23.612Z,6.57
2022-10-05T08:03:57.006Z,7.40
2022-10-05T08:06:41.275Z,7.83
2022-10-05T08:09:23.221Z,9.30
2022-10-05T08:12:00.173Z,9.80
2022-10-05T08:14:38.415Z,9.00
2022-10-05T08:17:17.726Z,8.97
2022-10-05T08:19:53.246Z,8.17
2022-10-05T08:22:29.090Z,7.27
2022-10-05T08:25:00.761Z,8.40
2022-10-05T08:27:37.283Z,7.57
2022-10-05T08:30:10.074Z,8.13
2022-10-05T08:32:44.133Z,8.37
2022-10-05T08:35:29.995Z,6.80
2022-10-05T08:37:59.895Z,6.70
2022-10-05T08:40:49.476Z,7.97
2022-10-05T08:43:40.865Z,7.57
2022-10-05T08:46:42.551Z,8.33
2022-10-05T08:49:45.342Z,7.77
2022-10-05T08:52:29.201Z,7.40
2022-10-05T08:55:23.537Z,8.10
2022-10-05T08:58:23.629Z,7.57
2022-10-05T09:01:10.276Z,7.10
2022-10-05T09:04:20.290Z,8.40
2022-10-05T09:07:07.700Z,7.80
2022-10-05T09:10:04.857Z,7.40
2022-10-05T09:13:11.718Z,7.50
2022-10-05T09:16:02.908Z,8.10
2022-10-05T09:18:59.925Z,7.47
2022-10-05T09:21:41.970Z,7.40
2022-10-05T09:24:28.459Z,8.43
2022-10-05T09:27:11.187Z,8.67
2022-10-05T09:30:16.599Z,7.63
2022-10-05T09:33:13.579Z,7.00
2022-10-05T09:36:11.105Z,7.57
2022-10-05T09:39:21.827Z,8.00
2022-10-05T09:42:15.805Z,7.60
2022-10-05T09:45:21.155Z,7.87
2022-10-05T09:48:23.958Z,7.93
2022-10-05T09:51:23.309Z,8.90
2022-10-05T09:54:18.536Z,7.13
2022-10-05T09:57:10.646Z,7.50
2022-10-05T10:00:21.324Z,7.33
2022-10-05T10:03:48.058Z,8.20
2022-10-05T10:06:51.343Z,7.97
2022-10-05T10:09:35.187Z,8.00
2022-10-05T10:12:39.015Z,6.70
2022-10-05T10:15:41.594Z,7.63
2022-10-05T10:18:30.733Z,7.30
2022-10-05T10:21:23.638Z,7.70
2022-10-05T10:24:18.378Z,7.70
2022-10-05T10:27:16.754Z,6.83
2022-10-05T10:30:15.944Z,7.80
2022-10-05T10:33:22.338Z,8.57
2022-10-05T10:36:03.083Z,8.60
2022-10-05T10:38:41.632Z,7.10
2022-10-05T10:41:39.106Z,6.93
2022-10-05T10:44:43.640Z,8.47
2022-10-05T10:47:36.705Z,7.70
2022-10-05T10:50:54.283Z,7.67
2022-10-05T10:53:43.522Z,7.97
2022-10-05T10:56:36.448Z,7.63
2022-10-05T10:59:33.080Z,7.60
2022-10-05T11:02:21.458Z,8.47
2022-10-05T11:05:09.663Z,7.23
2022-10-05T11:08:09.167Z,7.50
2022-10-05T11:11:11.085Z,8.33
2022-10-05T11:14:03.034Z,6.97
2022-10-05T11:17:03.814Z,7.70
2022-10-05T11:20:13.442Z,6.93
2022-10-05T11:23:04.203Z,7.47
2022-10-05T11:26:05.160Z,7.67
2022-10-05T11:28:54.095Z,7.33
2022-10-05T11:31:39.218Z,7.93
2022-10-05T11:34:37.312Z,7.37
2022-10-05T11:37:48.250Z,7.67
2022-10-05T11:40:34.512Z,7.63
2022-10-05T11:43:30.006Z,6.17
2022-10-05T11:46:09.537Z,7.13
2022-10-05T11:49:02.312Z,6.87
2022-10-05T11:51:51.700Z,6.63
2022-10-05T11:55:10.260Z,6.80
2022-10-05T11:57:49.319Z,8.13
2022-10-05T12:00:21.438Z,7.53
2022-10-05T12:03:33.500Z,7.77
2022-10-05T12:06:23.669Z,7.93
2022-10-05T12:09:05.182Z,8.10
2022-10-05T12:11:45.506Z,7.87
2022-10-05T12:14:25.515Z,8.10
2022-10-05T12:17:00.522Z,7.30
2022-10-05T12:19:36.914Z,7.30
2022-10-05T12:22:15.641Z,7.17
2022-10-05T12:25:02.050Z,6.87
2022-10-05T12:27:36.582Z,6.67
2022-10-05T12:30:15.850Z,7.67
2022-10-05T12:33:01.855Z,7.33
2022-10-05T12:35:54.782Z,8.40
2022-10-05T12:38:29.464Z,8.30
2022-10-05T12:41:09.529Z,7.53
2022-10-05T12:43:49.439Z,6.70
2022-10-05T12:46:26.717Z,6.77
2022-10-05T12:49:23.515Z,6.47
2022-10-05T12:51:58.961Z,7.23
2022-10-05T12:54:39.638Z,7.10
2022-10-05T12:57:16.912Z,7.43
2022-10-05T12:59:51.882Z,7.07
2022-10-05T13:02:31.311Z,8.00
2022-10-05T13:05:15.850Z,8.20
2022-10-05T13:08:01.557Z,8.50
2022-10-05T13:10:36.734Z,8.37
2022-10-05T13:13:40.035Z,8.77
2022-10-05T13:16:18.964Z,8.53
2022-10-05T13:19:00.218Z,8.33
2022-10-05T13:21:36.061Z,8.10
2022-10-05T13:24:14.231Z,7.60
2022-10-05T13:26:49.599Z,7.97
2022-10-05T13:29:25.512Z,7.37
2022-10-05T13:31:58.672Z,7.37
2022-10-05T13:34:35.187Z,8.13
2022-10-05T13:37:16.460Z,7.77
2022-10-05T13:40:00.711Z,7.77
2022-10-05T13:42:36.160Z,7.97
2022-10-05T13:45:15.335Z,7.77
2022-10-05T13:47:54.707Z,7.93
2022-10-05T13:50:28.506Z,8.30
2022-10-05T13:53:09.754Z,7.33
2022-10-05T13:55:47.712Z,7.73
2022-10-05T13:58:29.367Z,8.10
2022-10-05T14:01:02.392Z,7.43
2022-10-05T14:03:35.020Z,7.27
2022-10-05T14:06:12.478Z,7.17
2022-10-05T14:08:50.305Z,8.67
2022-10-05T14:11:28.147Z,7.87
2022-10-05T14:14:05.567Z,7.47
2022-10-05T14:16:35.577Z,7.57
2022-10-05T14:19:20.205Z,7.50
2022-10-05T14:21:53.847Z,9.13
2022-10-05T14:24:45.003Z,7.57
2022-10-05T14:27:23.226Z,7.10
2022-10-05T14:29:59.922Z,7.03
2022-10-05T14:32:31.462Z,8.05
2022-10-05T14:35:15.282Z,7.47
2022-10-05T14:37:51.803Z,8.77
2022-10-05T14:40:27.676Z,7.30
2022-10-05T14:42:58.605Z,9.30
2022-10-05T14:45:29.998Z,7.13
2022-10-05T14:48:10.811Z,7.50
2022-10-05T14:50:55.058Z,8.40
2022-10-05T14:53:25.855Z,7.83
2022-10-05T14:56:17.159Z,7.90
2022-10-05T14:59:07.842Z,7.80
2022-10-05T15:01:39.369Z,8.20
2022-10-05T15:04:20.934Z,7.87
2022-10-05T15:06:58.447Z,8.37
2022-10-05T15:09:51.283Z,7.73
2022-10-05T15:12:26.055Z,8.10
2022-10-05T15:15:02.087Z,8.87
2022-10-05T15:17:37.831Z,8.30
2022-10-05T15:20:18.214Z,7.73
2022-10-05T15:22:54.605Z,7.63
2022-10-05T15:25:30.508Z,8.70
2022-10-05T15:28:13.493Z,7.17
2022-10-05T15:30:52.803Z,7.13
2022-10-05T15:33:28.870Z,7.20
2022-10-05T15:36:06.363Z,7.87
2022-10-05T15:38:41.213Z,6.60
2022-10-05T15:41:16.000Z,7.70
2022-10-05T15:43:53.174Z,7.50
2022-10-05T15:46:34.380Z,7.60
2022-10-05T15:49:16.336Z,7.47
2022-10-05T15:51:57.429Z,8.13
2022-10-05T15:54:44.072Z,8.37
2022-10-05T15:57:24.207Z,8.00
2022-10-05T16:00:01.690Z,7.30
2022-10-05T16:02:41.911Z,7.40
2022-10-05T16:05:46.990Z,7.03
2022-10-05T16:08:46.821Z,8.23
2022-10-05T16:11:22.217Z,7.73
2022-10-05T16:13:59.830Z,7.43
2022-10-05T16:16:34.104Z,7.57
2022-10-05T16:19:12.630Z,7.60
2022-10-05T16:21:48.230Z,6.90
2022-10-05T16:24:25.165Z,6.87
2022-10-05T16:26:59.906Z,6.77
2022-10-05T16:29:41.420Z,6.77
2022-10-05T16:32:15.380Z,8.20
2022-10-05T16:34:56.519Z,7.77
2022-10-05T16:37:34.801Z,7.30
2022-10-05T16:40:11.008Z,7.83
2022-10-05T16:42:55.327Z,7.63
2022-10-05T16:45:44.641Z,7.83
2022-10-05T16:48:21.209Z,7.33
2022-10-05T16:50:59.681Z,8.00
2022-10-05T16:53:34.250Z,7.63
2022-10-05T16:56:05.862Z,10.23
2022-10-05T16:58:46.353Z,7.47
2022-10-05T17:01:30.193Z,6.93
2022-10-05T17:04:09.159Z,6.83
2022-10-05T17:07:07.302Z,6.70
2022-10-05T17:09:59.978Z,7.60
2022-10-05T17:12:46.982Z,7.90
2022-10-05T17:15:34.382Z,7.17
2022-10-05T17:18:20.035Z,7.43
2022-10-05T17:20:59.231Z,7.63
2022-10-05T17:23:45.778Z,7.60
2022-10-05T17:26:38.877Z,8.40
2022-10-05T17:29:15.960Z,7.90
2022-10-05T17:32:11.416Z,7.17
2022-10-05T17:34:41.056Z,8.10
2022-10-05T17:37:35.310Z,7.43
2022-10-05T17:40:34.466Z,7.17
2022-10-05T17:43:06.846Z,7.57
2022-10-05T17:45:55.119Z,7.80
2022-10-05T17:48:44.321Z,6.90
2022-10-05T17:52:15.338Z,6.80
2022-10-05T17:55:19.970Z,6.93
2022-10-05T17:57:49.993Z,7.90
2022-10-05T18:00:40.836Z,6.57
2022-10-05T18:03:38.939Z,6.53
2022-10-05T18:06:37.677Z,6.03
2022-10-05T18:09:39.419Z,6.60
2022-10-05T18:12:40.239Z,7.03
2022-10-05T18:15:48.907Z,6.97
2022-10-05T18:18:58.824Z,6.07
2022-10-05T18:21:38.123Z,7.03
2022-10-05T18:24:30.146Z,6.83
2022-10-05T18:27:24.719Z,7.80
2022-10-05T18:30:05.614Z,6.97
2022-10-05T18:32:48.219Z,6.43
2022-10-05T18:35:21.411Z,6.43
2022-10-05T18:38:02.914Z,6.90
2022-10-05T18:40:40.210Z,6.77
2022-10-05T18:43:27.156Z,6.33
2022-10-05T18:46:23.269Z,6.03
2022-10-05T18:49:08.628Z,5.67
2022-10-05T18:51:50.895Z,5.73
2022-10-05T18:54:44.639Z,6.03
2022-10-05T18:57:55.304Z,6.10
2022-10-05T19:00:25.799Z,6.80
2022-10-05T19:02:59.121Z,6.77
2022-10-05T19:05:48.770Z,6.13
2022-10-05T19:08:26.734Z,6.77
2022-10-05T19:10:58.732Z,6.03
2022-10-05T19:13:43.166Z,6.73
2022-10-05T19:16:25.546Z,6.73
2022-10-05T19:19:14.347Z,6.67
2022-10-05T19:21:50.532Z,7.30
2022-10-05T19:24:38.099Z,5.77
2022-10-05T19:27:18.707Z,6.83
2022-10-05T19:30:01.665Z,6.30
2022-10-05T19:32:40.365Z,6.40
2022-10-05T19:35:24.666Z,5.80
2022-10-05T19:38:09.639Z,6.37
2022-10-05T19:40:48.364Z,7.03
2022-10-05T19:43:33.216Z,6.13
2022-10-05T19:46:19.011Z,6.60
2022-10-05T19:48:49.856Z,6.60
2022-10-05T19:51:29.372Z,7.23
2022-10-05T19:54:02.141Z,6.23
2022-10-05T19:56:34.125Z,5.87
2022-10-05T19:59:14.472Z,6.07
2022-10-05T20:01:51.121Z,6.73
2022-10-05T20:04:34.695Z,5.57
2022-10-05T20:07:03.685Z,5.70
2022-10-05T20:09:51.929Z,5.80
2022-10-05T20:12:22.996Z,6.00
2022-10-05T20:18:03.336Z,6.17
2022-10-05T20:20:38.442Z,6.10
2022-10-05T20:23:28.054Z,5.40
2022-10-05T20:26:13.825Z,5.73
2022-10-05T20:28:41.992Z,5.33
2022-10-05T20:31:11.644Z,5.93
2022-10-05T20:33:42.160Z,5.50
2022-10-05T20:36:10.219Z,5.37
2022-10-05T20:38:41.073Z,6.17
2022-10-05T20:41:10.141Z,6.23
2022-10-05T20:43:39.468Z,6.07
2022-10-05T20:46:07.757Z,6.47
2022-10-05T20:48:36.087Z,6.17
2022-10-05T20:51:05.819Z,6.20
2022-10-05T20:53:34.161Z,6.03
2022-10-05T20:56:04.650Z,5.77
2022-10-05T20:58:32.683Z,6.50
2022-10-05T21:01:19.729Z,6.10
2022-10-05T21:03:48.028Z,5.77
2022-10-05T21:06:19.159Z,5.47
2022-10-05T21:08:47.940Z,5.87
2022-10-05T21:11:16.338Z,6.10
2022-10-05T21:13:45.875Z,6.53
2022-10-05T21:16:15.738Z,5.67
2022-10-05T21:18:47.183Z,6.40
2022-10-05T21:21:15.584Z,6.47
2022-10-05T21:23:45.620Z,6.37
2022-10-05T21:26:14.397Z,6.17
2022-10-05T21:28:43.129Z,6.17
2022-10-05T21:31:11.338Z,5.83
2022-10-05T21:33:39.379Z,5.87
2022-10-05T21:36:07.464Z,7.20
2022-10-05T21:38:35.400Z,6.27
2022-10-05T21:41:05.067Z,5.37
2022-10-05T21:43:33.547Z,5.53
2022-10-05T21:46:02.294Z,5.93
2022-10-05T21:48:31.977Z,6.67
2022-10-05T21:51:00.803Z,5.93
2022-10-05T21:53:33.266Z,5.43
2022-10-05T21:56:08.714Z,5.60
2022-10-05T21:58:37.241Z,5.50
2022-10-05T22:01:05.325Z,6.37
2022-10-05T22:03:33.538Z,5.20
2022-10-05T22:06:01.802Z,5.93
2022-10-05T22:08:32.258Z,5.80
2022-10-05T22:11:02.023Z,6.33
2022-10-05T22:13:42.011Z,6.37
2022-10-05T22:16:10.211Z,7.60
2022-10-05T22:18:38.434Z,6.13
2022-10-05T22:21:07.850Z,6.00
2022-10-05T22:23:36.586Z,5.63
2022-10-05T22:26:05.461Z,5.43
2022-10-05T22:28:35.823Z,5.67
2022-10-05T22:31:06.511Z,5.77
2022-10-05T22:33:35.496Z,5.87
2022-10-05T22:36:04.223Z,5.63
2022-10-05T22:38:32.585Z,5.50
2022-10-05T22:41:00.868Z,5.80
2022-10-05T22:43:29.091Z,5.97
2022-10-05T22:45:58.830Z,6.33
2022-10-05T22:48:27.394Z,5.80
2022-10-05T22:50:55.729Z,6.17
2022-10-05T22:53:23.773Z,5.87
2022-10-05T22:55:51.751Z,6.37
2022-10-05T22:58:19.736Z,6.90
2022-10-05T23:00:58.142Z,6.33
2022-10-05T23:03:28.263Z,7.00
2022-10-05T23:06:03.329Z,6.17
2022-10-05T23:08:32.028Z,6.37
2022-10-05T23:11:03.823Z,6.65
2022-10-05T23:13:32.607Z,6.50
2022-10-05T23:16:07.263Z,6.53
2022-10-05T23:18:37.126Z,5.83
2022-10-05T23:21:07.589Z,6.80
2022-10-05T23:23:37.454Z,6.03
2022-10-05T23:26:06.805Z,5.70
2022-10-05T23:28:35.528Z,5.10
2022-10-05T23:31:05.777Z,6.13
2022-10-05T23:33:34.198Z,5.73
2022-10-05T23:36:05.697Z,6.77
2022-10-05T23:38:34.014Z,5.37
2022-10-05T23:41:02.732Z,6.60
2022-10-05T23:43:33.414Z,6.33
2022-10-05T23:46:02.322Z,5.63
2022-10-05T23:48:31.600Z,5.77
2022-10-05T23:50:59.959Z,6.37
2022-10-05T23:53:29.450Z,8.53
2022-10-05T23:55:57.592Z,7.50
2022-10-05T23:58:26.595Z,7.13
